createdAt,value
2023-05-08T00:02:14.026Z,99.90
2023-05-08T00:04:40.971Z,99.90
2023-05-08T00:07:10.905Z,99.90
2023-05-08T00:09:40.326Z,99.90
2023-05-08T00:12:07.103Z,99.90
2023-05-08T00:14:33.796Z,99.90
2023-05-08T00:19:29.038Z,99.90
2023-05-08T00:22:00.563Z,99.90
2023-05-08T00:24:29.408Z,99.90
2023-05-08T00:36:46.828Z,99.90
2023-05-08T00:41:43.310Z,99.90
2023-05-08T00:44:12.218Z,99.90
2023-05-08T00:46:41.815Z,99.90
2023-05-08T00:49:14.583Z,99.90
2023-05-08T00:51:43.310Z,99.90
2023-05-08T00:54:12.780Z,99.90
2023-05-08T00:56:42.338Z,99.90
2023-05-08T00:59:14.240Z,99.90
2023-05-08T01:01:41.378Z,99.90
2023-05-08T01:04:08.175Z,99.90
2023-05-08T01:06:36.843Z,99.90
2023-05-08T01:09:04.191Z,99.90
2023-05-08T01:12:07.496Z,99.90
2023-05-08T01:14:55.468Z,99.90
2023-05-08T01:17:36.750Z,99.90
2023-05-08T01:22:47.780Z,99.90
2023-05-08T01:25:51.260Z,99.90
2023-05-08T01:28:51.184Z,99.90
2023-05-08T01:31:43.058Z,99.90
2023-05-08T01:34:23.544Z,99.90
2023-05-08T01:37:15.714Z,99.90
2023-05-08T01:39:50.633Z,99.90
2023-05-08T01:42:33.341Z,99.90
2023-05-08T01:45:17.418Z,99.90
2023-05-08T01:47:49.898Z,99.90
2023-05-08T01:50:25.614Z,99.90
2023-05-08T01:52:59.149Z,99.90
2023-05-08T01:55:31.525Z,99.90
2023-05-08T01:57:59.369Z,99.90
2023-05-08T02:00:28.530Z,99.90
2023-05-08T02:02:58.942Z,99.90
2023-05-08T02:05:29.202Z,99.90
2023-05-08T02:07:57.260Z,99.90
2023-05-08T02:10:25.268Z,99.90
2023-05-08T02:12:55.696Z,99.90
2023-05-08T02:15:24.574Z,99.90
2023-05-08T02:17:54.326Z,99.90
2023-05-08T02:20:23.563Z,99.90
2023-05-08T02:22:51.565Z,99.90
2023-05-08T02:25:24.303Z,99.90
2023-05-08T02:27:55.692Z,99.90
2023-05-08T02:30:28.598Z,99.90
2023-05-08T02:33:01.659Z,99.90
2023-05-08T02:35:32.229Z,99.90
2023-05-08T02:38:04.490Z,99.90
2023-05-08T02:40:34.011Z,99.90
2023-05-08T02:43:00.712Z,99.90
2023-05-08T02:45:36.895Z,99.90
2023-05-08T02:48:15.840Z,99.90
2023-05-08T02:50:59.176Z,99.90
2023-05-08T02:53:52.932Z,99.90
2023-05-08T02:56:53.007Z,99.90
2023-05-08T02:59:37.222Z,99.90
2023-05-08T03:02:13.454Z,99.90
2023-05-08T03:05:15.385Z,99.90
2023-05-08T03:07:45.840Z,99.90
2023-05-08T03:10:16.716Z,99.90
2023-05-08T03:12:47.922Z,99.90
2023-05-08T03:15:48.726Z,99.90
2023-05-08T03:18:19.030Z,99.90
2023-05-08T03:20:51.851Z,99.90
2023-05-08T03:23:20.883Z,99.90
2023-05-08T03:25:47.634Z,99.90
2023-05-08T03:28:17.228Z,99.90
2023-05-08T03:30:44.117Z,99.90
2023-05-08T03:33:12.292Z,99.90
2023-05-08T03:35:39.922Z,99.90
2023-05-08T03:38:09.432Z,99.90
2023-05-08T03:40:38.639Z,99.90
2023-05-08T03:43:09.529Z,99.90
2023-05-08T03:45:38.174Z,99.90
2023-05-08T03:48:06.772Z,99.90
2023-05-08T03:50:39.060Z,99.90
2023-05-08T03:53:08.285Z,99.90
2023-05-08T03:55:40.855Z,99.90
2023-05-08T03:58:10.565Z,99.90
2023-05-08T04:00:59.456Z,99.90
2023-05-08T04:04:07.802Z,99.90
2023-05-08T04:07:05.043Z,99.90
2023-05-08T04:09:39.295Z,99.90
2023-05-08T04:12:18.403Z,99.90
2023-05-08T04:15:01.215Z,99.90
2023-05-08T04:17:44.240Z,99.90
2023-05-08T04:20:16.301Z,99.90
2023-05-08T04:22:45.236Z,99.90
2023-05-08T04:25:13.984Z,99.90
2023-05-08T04:27:44.264Z,99.90
2023-05-08T04:30:14.462Z,99.90
2023-05-08T04:32:46.493Z,99.90
2023-05-08T04:35:14.333Z,99.90
2023-05-08T04:37:44.017Z,99.90
2023-05-08T04:40:11.277Z,99.90
2023-05-08T04:42:39.550Z,99.90
2023-05-08T04:45:07.127Z,99.90
2023-05-08T04:47:33.913Z,99.90
2023-05-08T04:50:02.826Z,99.90
2023-05-08T04:52:30.342Z,99.90
2023-05-08T04:54:56.976Z,99.90
2023-05-08T04:57:23.825Z,99.90
2023-05-08T04:59:50.981Z,99.90
2023-05-08T05:02:20.054Z,99.90
2023-05-08T05:04:46.888Z,99.90
2023-05-08T05:07:13.575Z,99.90
2023-05-08T05:09:42.757Z,99.90
2023-05-08T05:12:09.657Z,99.90
2023-05-08T05:14:38.571Z,99.90
2023-05-08T05:17:05.220Z,99.90
2023-05-08T05:19:36.913Z,99.90
2023-05-08T05:22:03.729Z,99.90
2023-05-08T05:24:30.518Z,99.90
2023-05-08T05:27:00.470Z,99.90
2023-05-08T05:29:30.272Z,99.90
2023-05-08T05:31:57.066Z,99.90
2023-05-08T05:34:23.762Z,99.90
2023-05-08T05:36:52.696Z,99.90
2023-05-08T05:39:19.458Z,99.90
2023-05-08T05:41:48.645Z,99.90
2023-05-08T05:44:15.392Z,99.90
2023-05-08T05:46:44.113Z,99.90
2023-05-08T05:49:13.650Z,99.90
2023-05-08T05:51:40.429Z,99.90
2023-05-08T05:54:09.246Z,99.90
2023-05-08T05:56:35.890Z,99.90
2023-05-08T05:59:05.138Z,99.90
2023-05-08T06:01:31.958Z,99.90
2023-05-08T06:04:00.855Z,99.90
2023-05-08T06:06:27.611Z,99.90
2023-05-08T06:13:51.362Z,99.90
2023-05-08T06:16:24.883Z,99.90
2023-05-08T06:21:21.096Z,99.90
2023-05-08T06:23:47.954Z,99.90
2023-05-08T06:26:14.934Z,99.90
2023-05-08T06:28:41.663Z,99.90
2023-05-08T06:33:35.714Z,99.90
2023-05-08T06:36:04.817Z,99.90
2023-05-08T06:38:36.102Z,99.90
2023-05-08T06:41:02.802Z,99.90
2023-05-08T06:43:30.636Z,99.90
2023-05-08T06:45:57.355Z,99.90
2023-05-08T06:48:28.920Z,99.90
2023-05-08T06:50:56.315Z,99.90
2023-05-08T06:53:23.219Z,99.90
2023-05-08T06:55:52.172Z,99.90
2023-05-08T06:58:18.942Z,99.90
2023-05-08T07:00:46.000Z,99.90
2023-05-08T07:03:12.740Z,99.90
2023-05-08T07:05:44.335Z,99.90
2023-05-08T07:08:13.154Z,99.90
2023-05-08T07:10:39.873Z,99.90
2023-05-08T07:13:06.874Z,99.90
2023-05-08T07:15:39.165Z,99.90
2023-05-08T07:18:06.581Z,99.90
2023-05-08T07:20:35.499Z,99.90
2023-05-08T07:23:02.433Z,99.90
2023-05-08T07:25:31.517Z,99.90
2023-05-08T07:28:01.457Z,99.90
2023-05-08T07:30:28.305Z,99.90
2023-05-08T07:32:55.148Z,99.90
2023-05-08T07:35:22.030Z,99.90
2023-05-08T07:37:48.706Z,99.90
2023-05-08T07:40:17.506Z,99.90
2023-05-08T07:42:45.089Z,99.90
2023-05-08T07:45:15.001Z,99.90
2023-05-08T07:47:53.657Z,99.90
2023-05-08T07:50:21.206Z,99.90
2023-05-08T07:52:50.104Z,99.90
2023-05-08T07:55:23.119Z,99.90
2023-05-08T07:57:52.468Z,99.90
2023-05-08T08:00:19.527Z,99.90
2023-05-08T08:02:46.395Z,99.90
2023-05-08T08:05:15.796Z,99.90
2023-05-08T08:07:42.754Z,99.90
2023-05-08T08:10:09.637Z,99.90
2023-05-08T08:12:39.560Z,99.90
2023-05-08T08:15:09.184Z,99.90
2023-05-08T08:17:36.492Z,99.90
2023-05-08T08:20:05.719Z,99.90
2023-05-08T08:22:32.399Z,99.90
2023-05-08T08:24:59.106Z,99.90
2023-05-08T08:27:28.253Z,99.90
2023-05-08T08:30:12.808Z,99.90
2023-05-08T08:32:43.360Z,99.90
2023-05-08T08:35:10.788Z,99.90
2023-05-08T08:37:39.771Z,99.90
2023-05-08T08:40:09.321Z,99.90
2023-05-08T08:42:36.152Z,99.90
2023-05-08T08:47:37.590Z,99.90
2023-05-08T08:50:10.707Z,99.90
2023-05-08T08:52:58.226Z,99.90
2023-05-08T08:55:26.285Z,99.90
2023-05-08T08:58:19.578Z,99.90
2023-05-08T09:00:48.004Z,99.90
2023-05-08T09:03:15.883Z,99.90
2023-05-08T09:05:43.662Z,99.90
2023-05-08T09:08:11.208Z,99.90
2023-05-08T09:10:38.341Z,99.90
2023-05-08T09:13:05.726Z,99.90
2023-05-08T09:15:35.392Z,99.90
2023-05-08T09:18:02.715Z,99.90
2023-05-08T09:20:30.230Z,99.90
2023-05-08T09:22:57.729Z,99.90
2023-05-08T09:25:26.752Z,99.90
2023-05-08T09:27:53.418Z,99.90
2023-05-08T09:30:22.677Z,99.90
2023-05-08T09:32:49.886Z,99.90
2023-05-08T09:35:19.074Z,99.90
2023-05-08T09:37:50.153Z,99.90
2023-05-08T09:40:18.287Z,99.90
2023-05-08T09:42:48.993Z,99.90
2023-05-08T09:45:35.356Z,99.90
2023-05-08T09:50:29.544Z,99.90
2023-05-08T09:52:56.375Z,99.90
2023-05-08T09:55:23.148Z,99.90
2023-05-08T09:58:00.524Z,99.90
2023-05-08T10:00:29.319Z,99.90
2023-05-08T10:02:59.026Z,99.90
2023-05-08T10:05:33.100Z,99.90
2023-05-08T10:08:17.732Z,99.90
2023-05-08T10:13:11.771Z,99.90
2023-05-08T10:15:41.708Z,99.90
2023-05-08T10:18:12.226Z,99.90
2023-05-08T10:20:44.361Z,99.90
2023-05-08T10:23:17.515Z,99.90
2023-05-08T10:25:54.150Z,99.90
2023-05-08T10:28:36.329Z,99.90
2023-05-08T10:31:05.568Z,99.90
2023-05-08T10:33:34.797Z,99.90
2023-05-08T10:36:02.050Z,99.90
2023-05-08T10:41:01.592Z,99.90
2023-05-08T10:43:34.557Z,99.90
2023-05-08T10:46:09.484Z,99.90
2023-05-08T10:48:56.512Z,99.90
2023-05-08T10:51:41.804Z,99.90
2023-05-08T10:54:18.785Z,99.90
2023-05-08T10:56:50.712Z,99.90
2023-05-08T10:59:21.194Z,99.90
2023-05-08T11:04:23.501Z,99.90
2023-05-08T11:06:53.156Z,99.90
2023-05-08T11:09:27.383Z,99.90
2023-05-08T11:12:08.410Z,99.90
2023-05-08T11:14:39.324Z,99.90
2023-05-08T11:17:08.996Z,99.90
2023-05-08T11:19:36.965Z,99.90
2023-05-08T11:22:36.936Z,99.90
2023-05-08T11:25:10.304Z,99.90
2023-05-08T11:27:41.147Z,99.90
2023-05-08T11:30:38.998Z,99.90
2023-05-08T11:33:08.087Z,99.90
2023-05-08T11:36:01.085Z,99.90
2023-05-08T11:38:38.411Z,99.90
2023-05-08T11:41:06.264Z,99.90
2023-05-08T11:43:36.167Z,99.90
2023-05-08T11:46:05.799Z,99.90
2023-05-08T11:48:33.099Z,99.90
2023-05-08T11:51:00.476Z,99.90
2023-05-08T11:53:31.256Z,99.90
2023-05-08T11:55:59.766Z,99.90
2023-05-08T11:58:27.116Z,99.90
2023-05-08T12:00:54.595Z,99.90
2023-05-08T12:03:23.339Z,99.90
2023-05-08T12:05:50.866Z,99.90
2023-05-08T12:08:18.368Z,99.90
2023-05-08T12:10:55.505Z,99.90
2023-05-08T12:13:30.712Z,99.90
2023-05-08T12:16:00.614Z,99.90
2023-05-08T12:18:29.245Z,99.90
2023-05-08T12:21:00.487Z,99.90
2023-05-08T12:23:30.886Z,99.90
2023-05-08T12:26:04.035Z,99.90
2023-05-08T12:28:34.310Z,99.90
2023-05-08T12:31:01.791Z,99.90
2023-05-08T12:33:30.975Z,99.90
2023-05-08T12:36:01.235Z,99.90
2023-05-08T12:38:30.847Z,99.90
2023-05-08T12:40:57.613Z,99.90
2023-05-08T12:43:34.781Z,99.90
2023-05-08T12:46:02.742Z,99.90
2023-05-08T12:48:29.970Z,99.90
2023-05-08T12:51:05.263Z,99.90
2023-05-08T12:53:33.226Z,99.90
2023-05-08T12:56:06.128Z,99.90
2023-05-08T12:58:34.557Z,99.90
2023-05-08T13:01:12.781Z,99.90
2023-05-08T13:03:40.657Z,99.90
2023-05-08T13:06:07.887Z,99.90
2023-05-08T13:08:37.207Z,99.90
2023-05-08T13:11:07.500Z,99.90
2023-05-08T13:13:36.241Z,99.90
2023-05-08T13:16:04.942Z,99.90
2023-05-08T13:18:36.204Z,99.90
2023-05-08T13:21:03.693Z,99.90
2023-05-08T13:23:30.549Z,99.90
2023-05-08T13:25:57.312Z,99.90
2023-05-08T13:30:51.128Z,99.90
2023-05-08T13:33:20.276Z,99.90
2023-05-08T13:35:48.618Z,99.90
2023-05-08T13:38:15.331Z,99.90
2023-05-08T13:40:42.006Z,99.90
2023-05-08T13:43:11.089Z,99.90
2023-05-08T13:45:40.053Z,99.90
2023-05-08T13:48:09.385Z,99.90
2023-05-08T13:50:36.084Z,99.90
2023-05-08T13:53:06.060Z,99.90
2023-05-08T13:55:32.750Z,99.90
2023-05-08T13:57:59.464Z,99.90
2023-05-08T14:00:30.885Z,99.90
2023-05-08T14:02:59.898Z,99.90
2023-05-08T14:05:26.620Z,99.90
2023-05-08T14:07:53.298Z,99.30
2023-05-08T14:10:20.317Z,99.10
2023-05-08T14:12:47.083Z,97.50
2023-05-08T14:15:13.940Z,97.40
2023-05-08T14:17:43.199Z,97.70
2023-05-08T14:20:12.880Z,99.60
2023-05-08T14:22:39.926Z,98.20
2023-05-08T14:25:07.498Z,98.70
2023-05-08T14:27:34.215Z,97.50
2023-05-08T14:30:03.939Z,96.20
2023-05-08T14:32:30.609Z,97.00
2023-05-08T14:34:57.304Z,96.10
2023-05-08T14:37:24.072Z,96.60
2023-05-08T14:39:54.042Z,97.60
2023-05-08T14:42:23.250Z,98.60
2023-05-08T14:44:53.152Z,99.40
2023-05-08T14:47:19.880Z,98.30
2023-05-08T14:49:46.598Z,98.90
2023-05-08T14:52:13.352Z,99.90
2023-05-08T14:54:40.308Z,99.90
2023-05-08T14:57:07.279Z,99.90
2023-05-08T14:59:36.141Z,99.90
2023-05-08T15:02:02.885Z,99.90
2023-05-08T15:04:31.833Z,99.90
2023-05-08T15:06:58.554Z,99.90
2023-05-08T15:09:27.785Z,99.90
2023-05-08T15:11:59.063Z,99.90
2023-05-08T15:14:27.070Z,99.90
2023-05-08T15:16:53.713Z,99.90
2023-05-08T15:19:20.590Z,99.90
2023-05-08T15:21:47.318Z,99.90
2023-05-08T15:24:16.122Z,99.90
2023-05-08T15:26:42.818Z,99.90
2023-05-08T15:29:09.916Z,99.90
2023-05-08T15:31:36.605Z,99.90
2023-05-08T15:34:05.730Z,99.90
2023-05-08T15:36:34.322Z,99.90
2023-05-08T15:39:01.069Z,99.90
2023-05-08T15:41:27.810Z,99.90
2023-05-08T15:43:56.598Z,99.90
2023-05-08T15:46:23.369Z,99.90
2023-05-08T15:48:52.306Z,99.90
2023-05-08T15:51:21.329Z,99.90
2023-05-08T15:53:52.799Z,99.90
2023-05-08T15:56:24.795Z,99.90
2023-05-08T15:58:52.341Z,99.90
2023-05-08T16:01:19.768Z,99.90
2023-05-08T16:03:49.489Z,99.60
2023-05-08T16:06:16.510Z,99.30
2023-05-08T16:08:43.936Z,99.90
2023-05-08T16:11:10.753Z,98.90
2023-05-08T16:13:37.402Z,99.20
2023-05-08T16:16:07.672Z,99.30
2023-05-08T16:18:39.135Z,99.60
2023-05-08T16:21:13.086Z,99.90
2023-05-08T16:23:44.414Z,99.90
2023-05-08T16:26:11.252Z,99.90
2023-05-08T16:28:40.462Z,99.90
2023-05-08T16:31:07.702Z,99.90
2023-05-08T16:33:34.561Z,99.90
2023-05-08T16:36:03.600Z,99.90
2023-05-08T16:38:32.511Z,99.90
2023-05-08T16:41:07.038Z,99.90
2023-05-08T16:43:35.884Z,99.90
2023-05-08T16:46:05.272Z,99.90
2023-05-08T16:48:32.105Z,99.90
2023-05-08T16:51:01.247Z,99.90
2023-05-08T16:53:32.673Z,99.90
2023-05-08T16:55:59.478Z,99.90
2023-05-08T16:58:28.560Z,99.90
2023-05-08T17:00:59.893Z,99.90
2023-05-08T17:03:26.643Z,99.90
2023-05-08T17:05:55.638Z,99.90
2023-05-08T17:08:22.345Z,99.90
2023-05-08T17:10:53.397Z,99.90
2023-05-08T17:13:20.245Z,99.90
2023-05-08T17:15:46.944Z,99.90
2023-05-08T17:18:13.687Z,99.90
2023-05-08T17:20:42.346Z,99.90
2023-05-08T17:23:13.644Z,99.90
2023-05-08T17:25:40.381Z,99.90
2023-05-08T17:28:07.182Z,99.90
2023-05-08T17:33:03.688Z,99.90
2023-05-08T17:35:30.879Z,99.90
2023-05-08T17:38:02.526Z,99.90
2023-05-08T17:40:29.319Z,99.90
2023-05-08T17:42:56.004Z,99.90
2023-05-08T17:45:22.806Z,99.90
2023-05-08T17:47:49.594Z,99.90
2023-05-08T17:50:16.423Z,99.90
2023-05-08T17:52:45.990Z,99.90
2023-05-08T17:55:14.981Z,99.90
2023-05-08T17:57:44.042Z,99.90
2023-05-08T18:00:11.608Z,99.90
2023-05-08T18:02:42.044Z,99.90
2023-05-08T18:05:09.618Z,99.90
2023-05-08T18:07:43.399Z,99.90
2023-05-08T18:10:10.323Z,99.90
2023-05-08T18:12:36.983Z,99.90
2023-05-08T18:15:10.114Z,99.90
2023-05-08T18:17:36.796Z,99.90
2023-05-08T18:20:07.765Z,99.90
2023-05-08T18:22:36.848Z,99.90
2023-05-08T18:25:03.713Z,99.90
2023-05-08T18:27:33.384Z,99.90
2023-05-08T18:30:00.298Z,99.90
2023-05-08T18:32:27.099Z,99.90
2023-05-08T18:34:53.744Z,99.90
2023-05-08T18:37:23.174Z,99.90
2023-05-08T18:39:50.143Z,99.90
2023-05-08T18:42:16.814Z,99.90
2023-05-08T18:44:43.625Z,99.90
2023-05-08T18:47:10.329Z,99.90
2023-05-08T18:49:37.096Z,99.90
2023-05-08T18:52:03.968Z,99.90
2023-05-08T18:54:30.785Z,99.90
2023-05-08T18:56:58.200Z,99.90
2023-05-08T18:59:24.858Z,99.90
2023-05-08T19:01:51.864Z,99.90
2023-05-08T19:04:23.567Z,99.90
2023-05-08T19:09:17.361Z,99.90
2023-05-08T19:14:13.540Z,99.90
2023-05-08T19:16:42.657Z,99.90
2023-05-08T19:19:11.887Z,99.90
2023-05-08T19:21:38.598Z,99.90
2023-05-08T19:24:05.672Z,99.90
2023-05-08T19:26:32.327Z,99.90
2023-05-08T19:29:01.217Z,99.90
2023-05-08T19:31:35.163Z,99.90
2023-05-08T19:34:01.937Z,99.90
2023-05-08T19:36:28.651Z,99.90
2023-05-08T19:38:57.882Z,99.90
2023-05-08T19:41:25.253Z,99.90
2023-05-08T19:46:20.403Z,99.90
2023-05-08T19:48:47.118Z,99.90
2023-05-08T19:51:16.643Z,99.90
2023-05-08T19:53:43.400Z,99.90
2023-05-08T19:58:37.316Z,99.90
2023-05-08T20:03:36.117Z,99.90
2023-05-08T20:06:03.061Z,99.90
2023-05-08T20:08:29.982Z,99.90
2023-05-08T20:11:02.370Z,99.90
2023-05-08T20:13:29.245Z,99.90
2023-05-08T20:16:00.909Z,99.90
2023-05-08T20:18:29.971Z,99.90
2023-05-08T20:20:56.646Z,99.90
2023-05-08T20:23:23.388Z,99.90
2023-05-08T20:25:50.062Z,99.90
2023-05-08T20:28:22.235Z,99.90
2023-05-08T20:30:49.443Z,99.90
2023-05-08T20:33:16.507Z,99.90
2023-05-08T20:35:45.543Z,99.90
2023-05-08T20:38:15.972Z,99.90
2023-05-08T20:43:10.933Z,99.90
2023-05-08T20:45:38.039Z,99.90
2023-05-08T20:48:10.277Z,99.90
2023-05-08T20:50:37.031Z,99.90
2023-05-08T20:53:03.857Z,99.90
2023-05-08T20:55:32.845Z,99.90
2023-05-08T20:57:59.581Z,99.90
2023-05-08T21:00:28.810Z,99.90
2023-05-08T21:02:57.713Z,99.90
2023-05-08T21:05:24.626Z,99.90
2023-05-08T21:07:55.728Z,99.90
2023-05-08T21:10:22.466Z,99.90
2023-05-08T21:12:51.463Z,99.90
2023-05-08T21:15:23.140Z,99.90
2023-05-08T21:17:50.575Z,99.90
2023-05-08T21:20:18.050Z,99.90
2023-05-08T21:22:47.183Z,99.90
2023-05-08T21:25:14.885Z,99.90
2023-05-08T21:27:46.770Z,99.90
2023-05-08T21:30:16.675Z,99.90
2023-05-08T21:32:44.871Z,99.90
2023-05-08T21:37:39.622Z,99.90
2023-05-08T21:40:07.094Z,99.90
2023-05-08T21:42:33.770Z,99.90
2023-05-08T21:45:02.716Z,99.90
2023-05-08T21:47:29.391Z,99.90
2023-05-08T21:49:58.295Z,99.90
2023-05-08T21:52:26.003Z,99.90
2023-05-08T21:54:52.913Z,99.90
2023-05-08T21:57:22.428Z,99.90
2023-05-08T21:59:49.202Z,99.90
2023-05-08T22:02:16.397Z,99.90
2023-05-08T22:04:45.468Z,99.90
2023-05-08T22:07:12.119Z,99.90
2023-05-08T22:12:06.464Z,99.90
2023-05-08T22:14:35.598Z,99.90
2023-05-08T22:17:02.317Z,99.90
2023-05-08T22:19:29.070Z,99.90
2023-05-08T22:22:00.520Z,99.90
2023-05-08T22:24:27.233Z,99.90
2023-05-08T22:26:53.992Z,99.90
2023-05-08T22:29:20.686Z,99.90
2023-05-08T22:31:47.792Z,99.90
2023-05-08T22:34:14.973Z,99.90
2023-05-08T22:36:41.779Z,99.90
2023-05-08T22:39:14.905Z,99.90
2023-05-08T22:41:41.703Z,99.90
2023-05-08T22:44:08.468Z,99.90
2023-05-08T22:46:40.195Z,99.90
2023-05-08T22:49:06.962Z,99.90
2023-05-08T22:51:39.061Z,99.90
2023-05-08T22:54:06.298Z,99.90
2023-05-08T22:56:33.009Z,99.90
2023-05-08T22:58:59.675Z,99.90
2023-05-08T23:01:26.745Z,99.90
2023-05-08T23:03:56.468Z,99.90
2023-05-08T23:06:23.210Z,99.90
2023-05-08T23:08:49.893Z,99.90
2023-05-08T23:11:21.478Z,99.90
2023-05-08T23:13:53.061Z,99.90
2023-05-08T23:16:19.790Z,99.90
2023-05-08T23:18:53.648Z,99.90
2023-05-08T23:21:20.390Z,99.90
2023-05-08T23:23:48.007Z,99.90
2023-05-08T23:26:14.853Z,99.90
2023-05-08T23:28:41.600Z,99.90
2023-05-08T23:31:08.407Z,99.90
2023-05-08T23:33:35.487Z,99.90
2023-05-08T23:36:02.147Z,99.90
2023-05-08T23:38:31.539Z,99.90
2023-05-08T23:40:58.182Z,99.90
2023-05-08T23:43:24.963Z,99.90
2023-05-08T23:45:51.832Z,99.90
2023-05-08T23:48:18.519Z,99.90
2023-05-08T23:50:48.082Z,99.90
2023-05-08T23:53:19.539Z,99.90
2023-05-08T23:55:50.699Z,99.90
2023-05-08T23:58:18.372Z,99.90
